createdAt,value
2022-09-16T00:00:50.689Z,0.00
2022-09-16T00:01:50.687Z,0.00
2022-09-16T00:02:50.586Z,0.00
2022-09-16T00:03:50.571Z,0.00
2022-09-16T00:04:50.562Z,0.00
2022-09-16T00:05:50.546Z,0.00
2022-09-16T00:06:50.533Z,0.00
2022-09-16T00:07:50.521Z,0.00
2022-09-16T00:08:50.510Z,0.00
2022-09-16T00:10:50.483Z,0.00
2022-09-16T00:11:50.469Z,0.00
2022-09-16T00:12:50.457Z,0.00
2022-09-16T00:13:50.442Z,0.00
2022-09-16T00:14:50.430Z,0.00
2022-09-16T00:15:50.415Z,0.00
2022-09-16T00:16:50.419Z,0.00
2022-09-16T00:17:50.417Z,0.00
2022-09-16T00:18:50.378Z,0.00
2022-09-16T00:19:50.365Z,0.00
2022-09-16T00:21:50.339Z,0.00
2022-09-16T00:22:50.326Z,0.00
2022-09-16T00:23:50.312Z,0.00
2022-09-16T00:24:50.301Z,0.00
2022-09-16T00:25:50.287Z,0.00
2022-09-16T00:26:50.279Z,0.00
2022-09-16T00:27:50.261Z,0.00
2022-09-16T00:28:50.278Z,0.00
2022-09-16T00:29:50.237Z,0.00
2022-09-16T00:30:50.223Z,0.00
2022-09-16T00:33:50.217Z,0.00
2022-09-16T00:34:50.171Z,0.00
2022-09-16T00:35:50.159Z,0.00
2022-09-16T00:36:50.146Z,0.00
2022-09-16T00:37:50.133Z,0.00
2022-09-16T00:38:50.121Z,0.00
2022-09-16T00:39:50.197Z,0.00
2022-09-16T00:40:50.096Z,0.00
2022-09-16T00:41:50.081Z,0.00
2022-09-16T00:43:50.056Z,0.00
2022-09-16T00:44:50.043Z,0.00
2022-09-16T00:45:50.030Z,0.00
2022-09-16T00:46:50.076Z,0.00
2022-09-16T00:47:50.007Z,0.00
2022-09-16T00:48:49.991Z,0.00
2022-09-16T00:49:50.008Z,0.00
2022-09-16T00:50:49.966Z,0.00
2022-09-16T00:51:49.955Z,0.00
2022-09-16T00:52:49.944Z,0.00
2022-09-16T00:54:49.921Z,0.00
2022-09-16T00:55:49.904Z,0.00
2022-09-16T00:56:49.888Z,0.00
2022-09-16T00:57:49.878Z,0.00
2022-09-16T00:58:49.864Z,0.00
2022-09-16T00:59:49.852Z,0.00
2022-09-16T01:00:49.951Z,0.00
2022-09-16T01:01:49.909Z,0.00
2022-09-16T01:02:49.818Z,0.00
2022-09-16T01:03:49.801Z,0.00
2022-09-16T01:05:49.805Z,0.00
2022-09-16T01:06:49.766Z,0.00
2022-09-16T01:07:49.752Z,0.00
2022-09-16T01:08:49.737Z,0.00
2022-09-16T01:09:49.724Z,0.00
2022-09-16T01:10:49.711Z,0.00
2022-09-16T01:11:49.704Z,0.00
2022-09-16T01:12:49.686Z,0.00
2022-09-16T01:13:49.674Z,0.00
2022-09-16T01:14:49.659Z,0.00
2022-09-16T01:16:49.634Z,0.00
2022-09-16T01:17:49.622Z,0.00
2022-09-16T01:18:49.609Z,0.00
2022-09-16T01:19:49.596Z,0.00
2022-09-16T01:20:49.583Z,0.00
2022-09-16T01:21:49.598Z,0.00
2022-09-16T01:22:49.558Z,0.00
2022-09-16T01:23:49.548Z,0.00
2022-09-16T01:24:49.532Z,0.00
2022-09-16T01:25:49.521Z,0.00
2022-09-16T01:27:49.494Z,0.00
2022-09-16T01:28:49.480Z,0.00
2022-09-16T01:29:49.468Z,0.00
2022-09-16T01:30:49.455Z,0.00
2022-09-16T01:31:49.516Z,0.00
2022-09-16T01:32:49.429Z,0.00
2022-09-16T01:33:49.421Z,0.00
2022-09-16T01:34:49.405Z,0.00
2022-09-16T01:35:49.391Z,0.00
2022-09-16T01:36:49.379Z,0.00
2022-09-16T01:38:49.351Z,0.00
2022-09-16T01:39:49.377Z,0.00
2022-09-16T01:40:49.326Z,0.00
2022-09-16T01:41:49.313Z,0.00
2022-09-16T01:42:49.301Z,0.00
2022-09-16T01:43:49.288Z,0.00
2022-09-16T01:44:49.272Z,0.00
2022-09-16T01:45:49.261Z,0.00
2022-09-16T01:46:49.321Z,0.00
2022-09-16T01:47:49.235Z,0.00
2022-09-16T01:49:49.209Z,0.00
2022-09-16T01:50:49.197Z,0.00
2022-09-16T01:51:49.184Z,0.00
2022-09-16T01:52:49.167Z,0.00
2022-09-16T01:53:49.179Z,0.00
2022-09-16T01:54:49.142Z,0.00
2022-09-16T01:55:49.139Z,0.00
2022-09-16T01:56:49.117Z,0.00
2022-09-16T01:57:49.106Z,0.00
2022-09-16T01:58:49.093Z,0.00
2022-09-16T02:00:49.066Z,0.00
2022-09-16T02:01:49.258Z,0.00
2022-09-16T02:02:49.063Z,0.00
2022-09-16T02:03:49.027Z,0.00
2022-09-16T02:04:49.013Z,0.00
2022-09-16T02:05:49.002Z,0.00
2022-09-16T02:06:48.990Z,0.00
2022-09-16T02:07:48.976Z,0.00
2022-09-16T02:08:48.961Z,0.00
2022-09-16T02:09:48.974Z,0.00
2022-09-16T02:11:48.924Z,0.00
2022-09-16T02:12:48.910Z,0.00
2022-09-16T02:13:48.900Z,0.00
2022-09-16T02:14:48.884Z,0.00
2022-09-16T02:15:48.956Z,0.00
2022-09-16T02:16:48.858Z,0.00
2022-09-16T02:17:48.845Z,0.00
2022-09-16T02:18:48.831Z,0.00
2022-09-16T02:19:48.821Z,0.00
2022-09-16T02:20:48.806Z,0.00
2022-09-16T02:22:48.780Z,0.00
2022-09-16T02:23:48.767Z,0.00
2022-09-16T02:24:48.753Z,0.00
2022-09-16T02:25:48.766Z,0.00
2022-09-16T02:26:48.735Z,0.00
2022-09-16T02:27:48.716Z,0.00
2022-09-16T02:28:48.705Z,0.00
2022-09-16T02:29:48.689Z,0.00
2022-09-16T02:30:48.678Z,0.00
2022-09-16T02:31:52.325Z,0.00
2022-09-16T02:33:48.637Z,0.00
2022-09-16T02:34:48.623Z,0.00
2022-09-16T02:35:48.615Z,0.00
2022-09-16T02:36:48.597Z,0.00
2022-09-16T02:37:48.585Z,0.00
2022-09-16T02:38:48.573Z,0.00
2022-09-16T02:39:48.627Z,0.00
2022-09-16T02:40:48.557Z,0.00
2022-09-16T02:41:48.558Z,0.00
2022-09-16T02:42:48.518Z,0.00
2022-09-16T02:44:48.494Z,0.00
2022-09-16T02:45:48.481Z,0.00
2022-09-16T02:46:48.563Z,0.00
2022-09-16T02:47:48.456Z,0.00
2022-09-16T02:48:48.445Z,0.00
2022-09-16T02:49:48.432Z,0.00
2022-09-16T02:50:48.415Z,0.00
2022-09-16T02:51:48.403Z,0.00
2022-09-16T02:52:48.389Z,0.00
2022-09-16T02:53:48.379Z,0.00
2022-09-16T02:55:48.351Z,0.00
2022-09-16T02:56:48.336Z,0.00
2022-09-16T02:57:48.350Z,0.00
2022-09-16T02:58:48.318Z,0.00
2022-09-16T02:59:48.299Z,0.00
2022-09-16T03:00:48.284Z,0.00
2022-09-16T03:01:48.352Z,0.00
2022-09-16T03:02:48.335Z,0.00
2022-09-16T03:03:48.246Z,0.00
2022-09-16T03:04:48.233Z,0.00
2022-09-16T03:06:48.206Z,0.00
2022-09-16T03:07:48.195Z,0.00
2022-09-16T03:08:48.186Z,0.00
2022-09-16T03:09:48.173Z,0.00
2022-09-16T03:10:48.155Z,0.00
2022-09-16T03:11:48.143Z,0.00
2022-09-16T03:12:48.128Z,0.00
2022-09-16T03:13:48.140Z,0.00
2022-09-16T03:14:48.102Z,0.00
2022-09-16T03:15:48.187Z,0.00
2022-09-16T03:17:48.064Z,0.00
2022-09-16T03:18:48.052Z,0.00
2022-09-16T03:19:48.039Z,0.00
2022-09-16T03:20:48.024Z,0.00
2022-09-16T03:21:48.013Z,0.00
2022-09-16T03:22:47.997Z,0.00
2022-09-16T03:23:47.988Z,0.00
2022-09-16T03:24:47.972Z,0.00
2022-09-16T03:25:47.962Z,0.00
2022-09-16T03:26:47.946Z,0.00
2022-09-16T03:28:47.920Z,0.00
2022-09-16T03:29:47.933Z,0.00
2022-09-16T03:30:47.960Z,0.00
2022-09-16T03:31:47.883Z,0.00
2022-09-16T03:32:47.868Z,0.00
2022-09-16T03:33:47.858Z,0.00
2022-09-16T03:34:47.844Z,0.00
2022-09-16T03:35:47.831Z,0.00
2022-09-16T03:36:47.821Z,0.00
2022-09-16T03:37:47.809Z,0.00
2022-09-16T03:39:47.779Z,0.00
2022-09-16T03:40:47.765Z,0.00
2022-09-16T03:41:47.753Z,0.00
2022-09-16T03:42:47.737Z,0.00
2022-09-16T03:43:47.727Z,0.00
2022-09-16T03:44:47.713Z,0.00
2022-09-16T03:45:47.726Z,0.00
2022-09-16T03:46:47.684Z,0.00
2022-09-16T03:47:47.674Z,0.00
2022-09-16T03:48:47.661Z,0.00
2022-09-16T03:50:47.634Z,0.00
2022-09-16T03:51:47.623Z,0.00
2022-09-16T03:52:47.611Z,0.00
2022-09-16T03:53:47.683Z,0.00
2022-09-16T03:54:47.583Z,0.00
2022-09-16T03:55:47.577Z,0.00
2022-09-16T03:56:47.577Z,0.00
2022-09-16T03:57:47.549Z,0.00
2022-09-16T03:58:47.531Z,0.00
2022-09-16T03:59:47.520Z,0.00
2022-09-16T04:01:47.582Z,0.00
2022-09-16T04:02:47.512Z,0.00
2022-09-16T04:03:47.468Z,0.00
2022-09-16T04:04:47.457Z,0.00
2022-09-16T04:05:47.442Z,0.00
2022-09-16T04:06:47.428Z,0.00
2022-09-16T04:07:47.416Z,0.00
2022-09-16T04:08:47.556Z,0.00
2022-09-16T04:09:47.391Z,0.00
2022-09-16T04:10:47.376Z,0.00
2022-09-16T04:12:47.351Z,0.00
2022-09-16T04:13:47.338Z,0.00
2022-09-16T04:14:47.325Z,0.00
2022-09-16T04:15:47.373Z,0.00
2022-09-16T04:16:47.298Z,0.00
2022-09-16T04:17:47.311Z,0.00
2022-09-16T04:18:47.273Z,0.00
2022-09-16T04:19:47.263Z,0.00
2022-09-16T04:20:47.247Z,0.00
2022-09-16T04:21:47.236Z,0.00
2022-09-16T04:23:47.302Z,0.00
2022-09-16T04:24:47.196Z,0.00
2022-09-16T04:25:47.184Z,0.00
2022-09-16T04:26:47.170Z,0.00
2022-09-16T04:27:47.158Z,0.00
2022-09-16T04:28:47.145Z,0.00
2022-09-16T04:29:47.135Z,0.00
2022-09-16T04:30:47.235Z,0.00
2022-09-16T04:31:47.107Z,0.00
2022-09-16T04:32:47.092Z,0.00
2022-09-16T04:34:47.067Z,4.00
2022-09-16T04:35:47.056Z,4.00
2022-09-16T04:36:47.041Z,0.00
2022-09-16T04:37:47.032Z,4.00
2022-09-16T04:38:47.029Z,4.00
2022-09-16T04:39:47.090Z,4.00
2022-09-16T04:40:46.989Z,8.00
2022-09-16T04:41:46.978Z,8.00
2022-09-16T04:42:46.966Z,8.00
2022-09-16T04:43:46.955Z,12.00
2022-09-16T04:45:47.072Z,12.00
2022-09-16T04:46:46.912Z,16.00
2022-09-16T04:47:46.903Z,20.00
2022-09-16T04:48:46.886Z,24.00
2022-09-16T04:49:46.898Z,28.00
2022-09-16T04:50:46.860Z,36.00
2022-09-16T04:51:46.851Z,44.00
2022-09-16T04:52:46.835Z,48.00
2022-09-16T04:53:46.873Z,60.00
2022-09-16T04:54:46.807Z,72.00
2022-09-16T04:56:46.792Z,92.00
2022-09-16T04:57:46.772Z,104.00
2022-09-16T04:58:46.757Z,116.00
2022-09-16T04:59:46.742Z,132.00
2022-09-16T05:00:46.735Z,144.00
2022-09-16T05:01:46.800Z,160.00
2022-09-16T05:02:46.706Z,176.00
2022-09-16T05:03:46.802Z,188.00
2022-09-16T05:04:46.681Z,200.00
2022-09-16T05:05:46.692Z,212.00
2022-09-16T05:07:46.640Z,232.00
2022-09-16T05:08:46.694Z,240.00
2022-09-16T05:09:46.614Z,252.00
2022-09-16T05:10:46.603Z,276.00
2022-09-16T05:11:46.590Z,288.00
2022-09-16T05:12:49.410Z,292.00
2022-09-16T05:13:46.567Z,296.00
2022-09-16T05:14:46.554Z,292.00
2022-09-16T05:15:51.027Z,300.00
2022-09-16T05:16:46.532Z,316.00
2022-09-16T05:18:46.512Z,384.00
2022-09-16T05:19:46.487Z,440.00
2022-09-16T05:20:46.477Z,508.00
2022-09-16T05:21:46.584Z,580.00
2022-09-16T05:22:46.448Z,660.00
2022-09-16T05:23:47.200Z,748.00
2022-09-16T05:24:46.425Z,852.00
2022-09-16T05:25:46.407Z,960.00
2022-09-16T05:26:46.397Z,1076.00
2022-09-16T05:27:46.383Z,1188.00
2022-09-16T05:29:46.357Z,1416.00
2022-09-16T05:30:46.423Z,1540.00
2022-09-16T05:31:46.331Z,1668.00
2022-09-16T05:32:46.322Z,1800.00
2022-09-16T05:33:46.306Z,1912.00
2022-09-16T05:34:46.294Z,1996.00
2022-09-16T05:35:46.280Z,2032.00
2022-09-16T05:36:46.268Z,2060.00
2022-09-16T05:37:46.383Z,2100.00
2022-09-16T05:39:04.647Z,2132.00
2022-09-16T05:40:46.216Z,2224.00
2022-09-16T05:41:46.200Z,2312.00
2022-09-16T05:42:46.189Z,2436.00
2022-09-16T05:43:46.176Z,2556.00
2022-09-16T05:44:46.165Z,2716.00
2022-09-16T05:45:46.208Z,2908.00
2022-09-16T05:46:46.141Z,3108.00
2022-09-16T05:47:46.122Z,3272.00
2022-09-16T05:48:46.115Z,3380.00
2022-09-16T05:49:46.098Z,3488.00
2022-09-16T05:51:46.071Z,3532.00
2022-09-16T05:52:46.061Z,3596.00
2022-09-16T05:53:46.169Z,3676.00
2022-09-16T05:54:46.035Z,3780.00
2022-09-16T05:55:46.020Z,3932.00
2022-09-16T05:56:46.007Z,4140.00
2022-09-16T05:57:45.997Z,6892.00
2022-09-16T05:58:45.982Z,7928.00
2022-09-16T05:59:45.971Z,8112.00
2022-09-16T06:00:45.956Z,7760.00
2022-09-16T06:02:46.020Z,9496.00
2022-09-16T06:03:45.917Z,5752.00
2022-09-16T06:04:45.905Z,4088.00
2022-09-16T06:05:46.039Z,4180.00
2022-09-16T06:06:45.925Z,4324.00
2022-09-16T06:07:45.864Z,4560.00
2022-09-16T06:08:45.859Z,4804.00
2022-09-16T06:09:45.955Z,4708.00
2022-09-16T06:10:45.829Z,4640.00
2022-09-16T06:11:45.842Z,4432.00
2022-09-16T06:13:45.790Z,4000.00
2022-09-16T06:14:45.777Z,3940.00
2022-09-16T06:15:45.805Z,3960.00
2022-09-16T06:16:45.751Z,4140.00
2022-09-16T06:17:45.736Z,4324.00
2022-09-16T06:18:45.725Z,4536.00
2022-09-16T06:19:45.709Z,4756.00
2022-09-16T06:20:45.700Z,4888.00
2022-09-16T06:21:45.688Z,5092.00
2022-09-16T06:22:45.674Z,5312.00
2022-09-16T06:24:45.650Z,5144.00
2022-09-16T06:25:45.753Z,5248.00
2022-09-16T06:26:45.621Z,5436.00
2022-09-16T06:27:45.607Z,5520.00
2022-09-16T06:28:45.597Z,5408.00
2022-09-16T06:29:45.582Z,5052.00
2022-09-16T06:30:45.637Z,4660.00
2022-09-16T06:31:45.555Z,4268.00
2022-09-16T06:32:45.545Z,4060.00
2022-09-16T06:33:45.528Z,4100.00
2022-09-16T06:35:45.503Z,4732.00
2022-09-16T06:36:45.890Z,5416.00
2022-09-16T06:37:45.477Z,5792.00
2022-09-16T06:38:45.468Z,5980.00
2022-09-16T06:39:45.451Z,6416.00
2022-09-16T06:40:45.439Z,6324.00
2022-09-16T06:41:45.547Z,6288.00
2022-09-16T06:42:45.414Z,6340.00
2022-09-16T06:43:45.401Z,6380.00
2022-09-16T06:44:45.388Z,7232.00
2022-09-16T06:46:45.367Z,8320.00
2022-09-16T06:47:45.349Z,8268.00
2022-09-16T06:48:45.375Z,7620.00
2022-09-16T06:49:45.326Z,7700.00
2022-09-16T06:50:45.311Z,8256.00
2022-09-16T06:51:45.294Z,8608.00
2022-09-16T06:52:45.290Z,8648.00
2022-09-16T06:53:45.268Z,8452.00
2022-09-16T06:54:45.257Z,7992.00
2022-09-16T06:55:45.243Z,7360.00
2022-09-16T06:57:45.343Z,7904.00
2022-09-16T06:58:45.204Z,9332.00
2022-09-16T06:59:45.190Z,13292.00
2022-09-16T07:00:45.178Z,15056.00
2022-09-16T07:01:45.221Z,23904.00
2022-09-16T07:02:45.198Z,43872.00
2022-09-16T07:03:45.138Z,42176.00
2022-09-16T07:04:45.124Z,42304.00
2022-09-16T07:05:45.110Z,43392.00
2022-09-16T07:07:11.697Z,14644.00
2022-09-16T07:08:45.074Z,45536.00
2022-09-16T07:09:45.059Z,39360.00
2022-09-16T07:10:45.049Z,13712.00
2022-09-16T07:11:45.038Z,46592.00
2022-09-16T07:12:45.023Z,48352.00
2022-09-16T07:13:45.128Z,47552.00
2022-09-16T07:14:44.997Z,39424.00
2022-09-16T07:16:09.268Z,50784.00
2022-09-16T07:16:44.999Z,52448.00
2022-09-16T07:17:44.955Z,51840.00
2022-09-16T07:19:44.929Z,55680.00
2022-09-16T07:20:44.919Z,56032.00
2022-09-16T07:21:44.960Z,52704.00
2022-09-16T07:22:44.892Z,52928.00
2022-09-16T07:23:44.877Z,15324.00
2022-09-16T07:24:44.868Z,19936.00
2022-09-16T07:25:44.853Z,56448.00
2022-09-16T07:26:44.841Z,55072.00
2022-09-16T07:27:44.826Z,19264.00
2022-09-16T07:28:44.885Z,58848.00
2022-09-16T07:30:44.907Z,11784.00
2022-09-16T07:31:44.776Z,11788.00
2022-09-16T07:32:44.782Z,13936.00
2022-09-16T07:33:44.820Z,60128.00
2022-09-16T07:34:44.738Z,33952.00
2022-09-16T07:35:44.722Z,60224.00
2022-09-16T07:36:44.721Z,61760.00
2022-09-16T07:37:44.700Z,62336.00
2022-09-16T07:38:44.691Z,58976.00
2022-09-16T07:39:44.672Z,59968.00
2022-09-16T07:41:44.647Z,65344.00
2022-09-16T07:42:44.636Z,68448.00
2022-09-16T07:43:44.701Z,67520.00
2022-09-16T07:44:44.610Z,33376.00
2022-09-16T07:45:44.765Z,70624.00
2022-09-16T07:46:44.583Z,27104.00
2022-09-16T07:47:44.568Z,60992.00
2022-09-16T07:48:44.595Z,19840.00
2022-09-16T07:49:44.541Z,18752.00
2022-09-16T07:50:44.531Z,23872.00
2022-09-16T07:53:44.496Z,10832.00
2022-09-16T07:54:44.483Z,11016.00
2022-09-16T07:55:44.466Z,11732.00
2022-09-16T07:56:44.454Z,12980.00
2022-09-16T07:57:44.444Z,14120.00
2022-09-16T07:58:44.430Z,15764.00
2022-09-16T07:59:44.415Z,28992.00
2022-09-16T08:00:44.403Z,16864.00
2022-09-16T08:01:44.579Z,16092.00
2022-09-16T08:03:44.474Z,16284.00
2022-09-16T08:04:44.352Z,16156.00
2022-09-16T08:05:44.337Z,21632.00
2022-09-16T08:06:44.327Z,21856.00
2022-09-16T08:07:44.310Z,26432.00
2022-09-16T08:08:44.330Z,25120.00
2022-09-16T08:09:50.008Z,37888.00
2022-09-16T08:10:46.868Z,71616.00
2022-09-16T08:11:44.260Z,70144.00
2022-09-16T08:12:44.248Z,70080.00
2022-09-16T08:14:44.225Z,71168.00
2022-09-16T08:15:44.209Z,67104.00
2022-09-16T08:16:44.230Z,73408.00
2022-09-16T08:17:44.309Z,71392.00
2022-09-16T08:18:44.303Z,77664.00
2022-09-16T08:19:44.158Z,72736.00
2022-09-16T08:20:44.148Z,74048.00
2022-09-16T08:21:44.134Z,79360.00
2022-09-16T08:22:44.128Z,82944.00
2022-09-16T08:23:44.111Z,82880.00
2022-09-16T08:25:44.084Z,80576.00
2022-09-16T08:26:44.156Z,78848.00
2022-09-16T08:27:44.063Z,79264.00
2022-09-16T08:28:51.063Z,82304.00
2022-09-16T08:29:46.034Z,77056.00
2022-09-16T08:30:44.040Z,49824.00
2022-09-16T08:31:44.127Z,18464.00
2022-09-16T08:32:44.000Z,15952.00
2022-09-16T08:33:44.132Z,71552.00
2022-09-16T08:34:43.976Z,59008.00
2022-09-16T08:36:43.952Z,80512.00
2022-09-16T08:37:48.187Z,81760.00
2022-09-16T08:38:44.015Z,83360.00
2022-09-16T08:39:43.913Z,89952.00
2022-09-16T08:40:43.901Z,96576.00
2022-09-16T08:41:43.900Z,98368.00
2022-09-16T08:42:43.879Z,43328.00
2022-09-16T08:43:43.929Z,25344.00
2022-09-16T08:44:43.855Z,16132.00
2022-09-16T08:45:43.889Z,13548.00
2022-09-16T08:47:43.818Z,14752.00
2022-09-16T08:48:43.805Z,15864.00
2022-09-16T08:49:46.336Z,16928.00
2022-09-16T08:50:43.784Z,18112.00
2022-09-16T08:51:43.767Z,18848.00
2022-09-16T08:52:43.755Z,18368.00
2022-09-16T08:53:43.778Z,18528.00
2022-09-16T08:54:43.730Z,17088.00
2022-09-16T08:55:43.720Z,14412.00
2022-09-16T08:56:44.971Z,13004.00
2022-09-16T08:58:43.710Z,12036.00
2022-09-16T08:59:43.664Z,9988.00
2022-09-16T09:00:43.711Z,8192.00
2022-09-16T09:01:44.188Z,7464.00
2022-09-16T09:02:44.311Z,7292.00
2022-09-16T09:03:43.683Z,7316.00
2022-09-16T09:04:43.602Z,7436.00
2022-09-16T09:05:43.724Z,7604.00
2022-09-16T09:06:43.575Z,7792.00
2022-09-16T09:07:43.758Z,8028.00
2022-09-16T09:09:43.535Z,8704.00
2022-09-16T09:10:43.525Z,9204.00
2022-09-16T09:11:43.510Z,9408.00
2022-09-16T09:12:43.852Z,11296.00
2022-09-16T09:13:43.483Z,10596.00
2022-09-16T09:14:43.470Z,10432.00
2022-09-16T09:15:43.459Z,11420.00
2022-09-16T09:16:43.511Z,12176.00
2022-09-16T09:17:50.432Z,12564.00
2022-09-16T09:19:43.404Z,11784.00
2022-09-16T09:20:43.389Z,11564.00
2022-09-16T09:21:43.514Z,11188.00
2022-09-16T09:22:45.881Z,10388.00
2022-09-16T09:23:43.354Z,9672.00
2022-09-16T09:24:43.336Z,9208.00
2022-09-16T09:25:43.326Z,8668.00
2022-09-16T09:26:43.311Z,8144.00
2022-09-16T09:27:43.300Z,7752.00
2022-09-16T09:28:43.285Z,7580.00
2022-09-16T09:30:43.260Z,7808.00
2022-09-16T09:31:43.332Z,8244.00
2022-09-16T09:32:49.503Z,9176.00
2022-09-16T09:33:46.577Z,10608.00
2022-09-16T09:34:43.210Z,12348.00
2022-09-16T09:35:43.199Z,14252.00
2022-09-16T09:36:43.185Z,18240.00
2022-09-16T09:37:43.309Z,21504.00
2022-09-16T09:38:43.161Z,16548.00
2022-09-16T09:39:43.149Z,16216.00
2022-09-16T09:41:43.122Z,49184.00
2022-09-16T09:42:43.106Z,36320.00
2022-09-16T09:43:43.100Z,94944.00
2022-09-16T09:44:43.114Z,93664.00
2022-09-16T09:45:43.188Z,34976.00
2022-09-16T09:46:43.055Z,74464.00
2022-09-16T09:47:43.051Z,49408.00
2022-09-16T09:48:43.029Z,27200.00
2022-09-16T09:49:43.022Z,31072.00
2022-09-16T09:50:43.003Z,90560.00
2022-09-16T09:52:42.982Z,24544.00
2022-09-16T09:53:43.189Z,21664.00
2022-09-16T09:54:42.951Z,20256.00
2022-09-16T09:55:42.939Z,19872.00
2022-09-16T09:56:42.924Z,19616.00
2022-09-16T09:57:42.912Z,19232.00
2022-09-16T09:58:42.909Z,18624.00
2022-09-16T09:59:42.885Z,16636.00
2022-09-16T10:00:42.937Z,15816.00
2022-09-16T10:01:42.897Z,14516.00
2022-09-16T10:03:42.837Z,11280.00
2022-09-16T10:04:42.820Z,10732.00
2022-09-16T10:05:42.809Z,11192.00
2022-09-16T10:06:42.796Z,12576.00
2022-09-16T10:07:42.785Z,16564.00
2022-09-16T10:08:42.769Z,29856.00
2022-09-16T10:09:42.889Z,93760.00
2022-09-16T10:10:42.751Z,95456.00
2022-09-16T10:11:42.732Z,39552.00
2022-09-16T10:12:42.726Z,20032.00
2022-09-16T10:14:42.693Z,21408.00
2022-09-16T10:15:42.681Z,20032.00
2022-09-16T10:16:42.712Z,18816.00
2022-09-16T10:17:42.656Z,16032.00
2022-09-16T10:18:42.645Z,14056.00
2022-09-16T10:19:42.636Z,12396.00
2022-09-16T10:20:42.618Z,10740.00
2022-09-16T10:21:42.604Z,9760.00
2022-09-16T10:22:42.591Z,9208.00
2022-09-16T10:23:42.599Z,9004.00
2022-09-16T10:25:42.697Z,10008.00
2022-09-16T10:26:42.543Z,10056.00
2022-09-16T10:27:42.526Z,10256.00
2022-09-16T10:28:42.511Z,10796.00
2022-09-16T10:29:42.501Z,11564.00
2022-09-16T10:30:42.486Z,12760.00
2022-09-16T10:31:42.499Z,15660.00
2022-09-16T10:32:42.465Z,26080.00
2022-09-16T10:33:42.452Z,57280.00
2022-09-16T10:34:42.436Z,74048.00
2022-09-16T10:36:42.410Z,69920.00
2022-09-16T10:37:42.400Z,77216.00
2022-09-16T10:38:42.385Z,88480.00
2022-09-16T10:39:42.374Z,96736.00
2022-09-16T10:40:42.359Z,93088.00
2022-09-16T10:41:42.500Z,81536.00
2022-09-16T10:42:42.334Z,91680.00
2022-09-16T10:43:42.324Z,88896.00
2022-09-16T10:44:42.310Z,79936.00
2022-09-16T10:45:42.302Z,65312.00
2022-09-16T10:47:42.362Z,52800.00
2022-09-16T10:48:42.261Z,28608.00
2022-09-16T10:49:42.259Z,23392.00
2022-09-16T10:50:42.236Z,20704.00
2022-09-16T10:51:42.225Z,17344.00
2022-09-16T10:52:42.210Z,15288.00
2022-09-16T10:53:44.419Z,13608.00
2022-09-16T10:54:42.186Z,12104.00
2022-09-16T10:55:42.174Z,10924.00
2022-09-16T10:56:42.159Z,9788.00
2022-09-16T10:58:42.134Z,8128.00
2022-09-16T10:59:42.134Z,7532.00
2022-09-16T11:00:45.578Z,7452.00
2022-09-16T11:01:44.886Z,7724.00
2022-09-16T11:02:42.084Z,8172.00
2022-09-16T11:03:42.072Z,8732.00
2022-09-16T11:04:42.058Z,9288.00
2022-09-16T11:05:42.046Z,10204.00
2022-09-16T11:06:42.033Z,11064.00
2022-09-16T11:07:42.025Z,11752.00
2022-09-16T11:09:41.997Z,11660.00
2022-09-16T11:10:41.981Z,10952.00
2022-09-16T11:11:41.971Z,10284.00
2022-09-16T11:12:41.955Z,9724.00
2022-09-16T11:13:42.077Z,9448.00
2022-09-16T11:14:41.928Z,9440.00
2022-09-16T11:15:41.916Z,9620.00
2022-09-16T11:16:41.968Z,9940.00
2022-09-16T11:17:41.891Z,10400.00
2022-09-16T11:18:41.885Z,11008.00
2022-09-16T11:20:41.852Z,13000.00
2022-09-16T11:21:41.843Z,14656.00
2022-09-16T11:22:41.826Z,17728.00
2022-09-16T11:23:41.814Z,23296.00
2022-09-16T11:24:41.798Z,58656.00
2022-09-16T11:25:41.788Z,81920.00
2022-09-16T11:26:41.772Z,80352.00
2022-09-16T11:27:41.761Z,77472.00
2022-09-16T11:28:41.746Z,78240.00
2022-09-16T11:29:41.870Z,79008.00
2022-09-16T11:31:41.798Z,77696.00
2022-09-16T11:32:41.861Z,78272.00
2022-09-16T11:33:41.683Z,79232.00
2022-09-16T11:34:41.670Z,80000.00
2022-09-16T11:35:41.658Z,80352.00
2022-09-16T11:36:41.645Z,80512.00
2022-09-16T11:37:41.633Z,79872.00
2022-09-16T11:38:43.988Z,77248.00
2022-09-16T11:39:41.617Z,75648.00
2022-09-16T11:40:41.596Z,76064.00
2022-09-16T11:42:41.572Z,80416.00
2022-09-16T11:43:41.558Z,79648.00
2022-09-16T11:44:41.545Z,76480.00
2022-09-16T11:45:41.717Z,62592.00
2022-09-16T11:46:41.602Z,71360.00
2022-09-16T11:47:41.511Z,70912.00
2022-09-16T11:48:41.497Z,69856.00
2022-09-16T11:49:41.486Z,69568.00
2022-09-16T11:50:41.472Z,69280.00
2022-09-16T11:51:41.464Z,28384.00
2022-09-16T11:53:44.233Z,28128.00
2022-09-16T11:54:41.422Z,25952.00
2022-09-16T11:55:41.410Z,31072.00
2022-09-16T11:56:41.399Z,54368.00
2022-09-16T11:57:41.387Z,13652.00
2022-09-16T11:58:41.373Z,12052.00
2022-09-16T11:59:41.361Z,10968.00
2022-09-16T12:00:41.348Z,10032.00
2022-09-16T12:01:41.587Z,9308.00
2022-09-16T12:02:41.397Z,9200.00
2022-09-16T12:04:41.296Z,9404.00
2022-09-16T12:05:41.286Z,9352.00
2022-09-16T12:06:41.273Z,9424.00
2022-09-16T12:07:41.261Z,9596.00
2022-09-16T12:08:41.245Z,9868.00
2022-09-16T12:09:41.233Z,10384.00
2022-09-16T12:10:41.220Z,11512.00
2022-09-16T12:11:41.209Z,12364.00
2022-09-16T12:12:41.198Z,13072.00
2022-09-16T12:13:41.182Z,13004.00
2022-09-16T12:15:41.161Z,13612.00
2022-09-16T12:16:41.142Z,13688.00
2022-09-16T12:17:41.257Z,13588.00
2022-09-16T12:18:41.116Z,17536.00
2022-09-16T12:19:41.103Z,47904.00
2022-09-16T12:20:41.089Z,71232.00
2022-09-16T12:21:41.081Z,68448.00
2022-09-16T12:22:41.066Z,55616.00
2022-09-16T12:23:41.052Z,60672.00
2022-09-16T12:24:41.037Z,62432.00
2022-09-16T12:26:41.012Z,65760.00
2022-09-16T12:27:41.002Z,65920.00
2022-09-16T12:28:40.987Z,64576.00
2022-09-16T12:29:40.975Z,61568.00
2022-09-16T12:30:40.964Z,57632.00
2022-09-16T12:31:41.009Z,57248.00
2022-09-16T12:32:40.937Z,56480.00
2022-09-16T12:33:41.063Z,38624.00
2022-09-16T12:34:40.912Z,36224.00
2022-09-16T12:35:40.900Z,47680.00
2022-09-16T12:37:40.874Z,36384.00
2022-09-16T12:38:40.862Z,50656.00
2022-09-16T12:39:40.851Z,66432.00
2022-09-16T12:40:40.838Z,34560.00
2022-09-16T12:41:40.837Z,64672.00
2022-09-16T12:42:44.511Z,65760.00
2022-09-16T12:43:40.807Z,65184.00
2022-09-16T12:44:40.797Z,63904.00
2022-09-16T12:45:40.780Z,57824.00
2022-09-16T12:46:40.923Z,40768.00
2022-09-16T12:48:40.752Z,50464.00
2022-09-16T12:49:40.859Z,54624.00
2022-09-16T12:50:40.713Z,61088.00
2022-09-16T12:51:40.703Z,59200.00
2022-09-16T12:52:40.688Z,54208.00
2022-09-16T12:53:40.678Z,51712.00
2022-09-16T12:55:03.936Z,52000.00
2022-09-16T12:55:42.655Z,53024.00
2022-09-16T12:56:40.638Z,55200.00
2022-09-16T12:57:40.628Z,58144.00
2022-09-16T12:59:40.603Z,39424.00
2022-09-16T13:00:40.590Z,51776.00
2022-09-16T13:01:40.722Z,59488.00
2022-09-16T13:02:40.731Z,13364.00
2022-09-16T13:03:40.556Z,10644.00
2022-09-16T13:04:40.541Z,13484.00
2022-09-16T13:05:40.666Z,58624.00
2022-09-16T13:06:40.515Z,58752.00
2022-09-16T13:07:40.506Z,57408.00
2022-09-16T13:08:40.490Z,54464.00
2022-09-16T13:10:54.981Z,36480.00
2022-09-16T13:12:44.056Z,14436.00
2022-09-16T13:13:40.429Z,16924.00
2022-09-16T13:14:40.416Z,18240.00
2022-09-16T13:15:40.454Z,17984.00
2022-09-16T13:16:40.388Z,11760.00
2022-09-16T13:17:40.376Z,10856.00
2022-09-16T13:18:40.361Z,10256.00
2022-09-16T13:19:40.351Z,10524.00
2022-09-16T13:21:40.456Z,9620.00
2022-09-16T13:22:40.313Z,9056.00
2022-09-16T13:23:40.301Z,8736.00
2022-09-16T13:24:40.286Z,8872.00
2022-09-16T13:25:40.274Z,9328.00
2022-09-16T13:26:40.260Z,9744.00
2022-09-16T13:27:40.248Z,9924.00
2022-09-16T13:28:40.236Z,11568.00
2022-09-16T13:29:40.222Z,13192.00
2022-09-16T13:30:40.209Z,9608.00
2022-09-16T13:32:40.184Z,45568.00
2022-09-16T13:33:40.171Z,42624.00
2022-09-16T13:34:40.160Z,9424.00
2022-09-16T13:35:40.150Z,9436.00
2022-09-16T13:36:40.137Z,9308.00
2022-09-16T13:37:40.259Z,9032.00
2022-09-16T13:38:40.111Z,8652.00